Time;durP1;ratioP1;P1;durP2;ratioP2;P2;SDS_P1;SDS_P2;PMS_P1;PMS_P2;Temp;Humidity;BMP_temperature;BMP_pressure;BME280_temperature;BME280_humidity;BME280_pressure;Samples;Min_cycle;Max_cycle;Signal;HPM_P1;HPM_P2
2023/07/26 00:02:16;;;;;;;0.10;0.03;;;10.50;1.00;;;;;;5074722;28;20098;-71
2023/07/26 00:04:42;;;;;;;0.90;0.10;;;10.50;1.00;;;;;;5074574;28;20537;-71
2023/07/26 00:07:07;;;;;;;5.63;0.98;;;10.50;1.00;;;;;;5074746;28;20119;-71
2023/07/26 00:09:33;;;;;;;0.00;0.00;;;10.50;1.00;;;;;;5073924;28;20028;-71
2023/07/26 00:11:59;;;;;;;2.00;0.98;;;10.50;1.00;;;;;;5073627;28;20087;-71
2023/07/26 00:14:24;;;;;;;0.75;0.75;;;10.50;1.00;;;;;;5067703;28;20138;-71
2023/07/26 00:16:50;;;;;;;0.15;0.15;;;10.50;1.00;;;;;;5073776;28;20041;-71
2023/07/26 00:19:19;;;;;;;0.20;0.13;;;10.50;1.00;;;;;;5074501;28;20372;-71
2023/07/26 00:21:47;;;;;;;0.57;0.15;;;10.50;15.80;;;;;;5074461;28;20045;-71
2023/07/26 00:24:13;;;;;;;0.25;0.20;;;10.50;55.10;;;;;;5065950;28;20085;-71
2023/07/26 00:26:40;;;;;;;0.00;0.00;;;10.50;62.80;;;;;;5073572;28;20141;-71
2023/07/26 00:29:05;;;;;;;0.00;0.00;;;10.50;54.60;;;;;;5074170;28;20185;-71
2023/07/26 00:31:31;;;;;;;0.17;0.17;;;10.50;35.40;;;;;;5073955;28;20127;-71
2023/07/26 00:33:57;;;;;;;0.00;0.00;;;10.60;54.70;;;;;;5073912;28;20040;-71
2023/07/26 00:36:22;;;;;;;0.22;0.15;;;10.60;52.60;;;;;;5073302;28;20513;-71
2023/07/26 00:38:48;;;;;;;0.32;0.30;;;10.70;44.20;;;;;;5074169;28;20410;-71
2023/07/26 00:41:13;;;;;;;0.00;0.00;;;10.70;40.00;;;;;;5066655;28;20575;-71
2023/07/26 00:43:39;;;;;;;0.00;0.00;;;10.70;34.70;;;;;;5074174;28;20035;-72
2023/07/26 00:46:06;;;;;;;0.00;0.00;;;10.70;1.10;;;;;;5073829;28;20052;-72
2023/07/26 00:48:33;;;;;;;9.85;0.75;;;10.70;1.00;;;;;;5073206;28;20041;-72
2023/07/26 00:51:00;;;;;;;0.00;0.00;;;10.70;1.00;;;;;;5073989;28;20098;-72
2023/07/26 00:53:26;;;;;;;0.15;0.15;;;10.70;1.00;;;;;;5073796;28;20044;-72
2023/07/26 00:55:53;;;;;;;0.47;0.35;;;10.70;1.00;;;;;;5073723;28;20491;-72
2023/07/26 00:58:19;;;;;;;0.00;0.00;;;10.70;1.00;;;;;;5072992;28;20406;-72
2023/07/26 01:00:45;;;;;;;1.58;0.88;;;10.70;1.00;;;;;;5072559;28;20047;-72
2023/07/26 01:03:11;;;;;;;0.63;0.32;;;10.70;1.00;;;;;;5073668;28;20040;-72
2023/07/26 01:05:52;;;;;;;0.00;0.00;;;10.70;3.90;;;;;;5073506;28;20039;-72
2023/07/26 01:08:27;;;;;;;0.28;0.28;;;10.70;1.00;;;;;;5063131;28;20106;-72
2023/07/26 01:11:04;;;;;;;0.10;0.10;;;10.70;9.90;;;;;;5071529;28;20040;-72
2023/07/26 01:13:48;;;;;;;0.00;0.00;;;10.70;12.50;;;;;;5073582;28;20437;-72
2023/07/26 01:16:15;;;;;;;0.30;0.30;;;10.80;16.60;;;;;;5066503;28;20032;-72
2023/07/26 01:18:41;;;;;;;0.05;0.05;;;10.80;31.60;;;;;;5072798;28;20036;-72
2023/07/26 01:21:06;;;;;;;1.30;0.68;;;10.80;32.80;;;;;;5073240;28;20562;-72
2023/07/26 01:23:32;;;;;;;0.90;0.43;;;10.80;59.00;;;;;;5072499;28;20522;-72
2023/07/26 01:25:58;;;;;;;1.20;0.20;;;10.80;47.60;;;;;;5073211;28;20502;-72
2023/07/26 01:28:23;;;;;;;0.10;0.10;;;10.80;45.10;;;;;;5065653;28;20387;-72
2023/07/26 01:30:49;;;;;;;0.30;0.20;;;10.80;48.20;;;;;;5073020;28;20094;-72
2023/07/26 01:33:17;;;;;;;0.90;0.75;;;10.80;65.10;;;;;;5072828;28;20037;-72
2023/07/26 01:35:44;;;;;;;0.00;0.00;;;10.70;67.20;;;;;;5072323;28;20387;-72
2023/07/26 01:38:11;;;;;;;0.00;0.00;;;10.80;66.90;;;;;;5072750;28;20483;-72
2023/07/26 01:40:38;;;;;;;0.00;0.00;;;10.80;80.50;;;;;;5072993;28;20036;-72
2023/07/26 01:43:03;;;;;;;0.20;0.20;;;10.70;88.70;;;;;;5071927;28;20398;-72
2023/07/26 01:45:29;;;;;;;0.00;0.00;;;10.70;91.10;;;;;;5066550;28;20036;-72
2023/07/26 01:47:55;;;;;;;0.10;0.10;;;10.60;95.10;;;;;;5072496;28;20044;-72
2023/07/26 01:50:20;;;;;;;0.15;0.10;;;10.60;93.40;;;;;;5072673;28;20539;-72
2023/07/26 01:52:46;;;;;;;0.08;0.08;;;10.50;93.80;;;;;;5072429;28;20033;-72
2023/07/26 01:55:12;;;;;;;0.00;0.00;;;10.40;94.00;;;;;;5072302;28;20387;-72
2023/07/26 01:57:37;;;;;;;0.00;0.00;;;10.30;96.50;;;;;;5072815;28;20040;-72
2023/07/26 02:00:04;;;;;;;0.00;0.00;;;10.20;99.80;;;;;;5072031;28;20040;-72
2023/07/26 02:02:30;;;;;;;0.25;0.25;;;10.10;99.90;;;;;;5070071;28;20045;-72
2023/07/26 02:04:56;;;;;;;0.15;0.15;;;10.00;99.90;;;;;;5072380;28;20044;-72
2023/07/26 02:07:21;;;;;;;0.32;0.10;;;10.00;99.90;;;;;;5071808;28;20036;-72
2023/07/26 02:09:47;;;;;;;0.00;0.00;;;9.80;99.90;;;;;;5072191;28;20037;-72
2023/07/26 02:12:12;;;;;;;0.98;0.77;;;9.80;99.90;;;;;;5072578;28;20084;-72
2023/07/26 02:14:38;;;;;;;5.50;1.55;;;9.80;99.90;;;;;;5072545;28;20123;-72
2023/07/26 02:17:04;;;;;;;0.22;0.22;;;9.70;99.90;;;;;;5071662;28;20402;-72
2023/07/26 02:19:29;;;;;;;0.20;0.20;;;9.70;99.90;;;;;;5071556;28;20082;-72
2023/07/26 02:21:55;;;;;;;0.00;0.00;;;9.60;99.90;;;;;;5072278;28;20718;-72
2023/07/26 02:24:21;;;;;;;0.22;0.22;;;9.60;99.90;;;;;;5072298;28;20083;-72
2023/07/26 02:26:46;;;;;;;0.35;0.35;;;9.50;99.90;;;;;;5071766;28;20068;-72
2023/07/26 02:29:12;;;;;;;0.75;0.30;;;9.40;99.90;;;;;;5072199;28;20091;-72
2023/07/26 02:31:38;;;;;;;0.47;0.47;;;9.40;99.90;;;;;;5071635;28;20105;-72
2023/07/26 02:34:03;;;;;;;0.00;0.00;;;9.50;99.90;;;;;;5072245;28;20041;-72
2023/07/26 02:36:29;;;;;;;4.05;0.30;;;9.50;99.90;;;;;;5065298;28;20165;-72
2023/07/26 02:38:54;;;;;;;0.38;0.32;;;9.50;99.90;;;;;;5072141;28;20399;-72
2023/07/26 02:41:20;;;;;;;0.43;0.32;;;9.50;99.90;;;;;;5070684;28;20048;-72
2023/07/26 02:43:45;;;;;;;0.40;0.40;;;9.50;99.90;;;;;;5065385;28;20033;-72
2023/07/26 02:46:11;;;;;;;0.73;0.52;;;9.40;99.90;;;;;;5072132;28;20098;-71
2023/07/26 02:48:37;;;;;;;0.10;0.10;;;9.40;99.90;;;;;;5071536;28;20080;-72
2023/07/26 02:51:02;;;;;;;0.15;0.15;;;9.30;99.90;;;;;;5071926;28;20143;-72
2023/07/26 02:53:28;;;;;;;0.52;0.52;;;9.30;99.90;;;;;;5071605;28;20048;-72
2023/07/26 02:55:54;;;;;;;0.45;0.40;;;9.30;99.90;;;;;;5072012;28;20037;-72
2023/07/26 02:58:19;;;;;;;0.00;0.00;;;9.30;99.90;;;;;;5072152;28;20469;-72
2023/07/26 03:00:45;;;;;;;0.57;0.22;;;9.20;99.90;;;;;;5071927;28;20048;-72
2023/07/26 03:03:10;;;;;;;0.22;0.22;;;9.20;99.90;;;;;;5071094;28;20076;-71
2023/07/26 03:05:37;;;;;;;0.43;0.30;;;9.20;99.90;;;;;;5071009;28;20454;-71
2023/07/26 03:08:03;;;;;;;2.83;0.85;;;9.10;99.90;;;;;;5072192;28;20379;-72
2023/07/26 03:10:28;;;;;;;0.10;0.10;;;9.10;99.90;;;;;;5071783;28;20047;-71
2023/07/26 03:12:55;;;;;;;0.38;0.28;;;9.10;99.90;;;;;;5071712;28;20505;-71
2023/07/26 03:15:21;;;;;;;0.13;0.13;;;9.10;99.90;;;;;;5067608;28;20063;-72
2023/07/26 03:17:46;;;;;;;0.00;0.00;;;9.20;99.90;;;;;;5071784;28;20408;-71
2023/07/26 03:20:12;;;;;;;0.03;0.03;;;9.10;99.90;;;;;;5071684;28;20037;-72
2023/07/26 03:22:37;;;;;;;0.22;0.22;;;9.20;99.90;;;;;;5070514;28;20047;-72
2023/07/26 03:25:04;;;;;;;0.45;0.25;;;9.20;99.90;;;;;;5070739;28;20123;-72
2023/07/26 03:27:29;;;;;;;0.43;0.40;;;9.20;99.90;;;;;;5071130;28;20083;-71
2023/07/26 03:29:55;;;;;;;0.38;0.35;;;9.10;99.90;;;;;;5071711;28;20202;-71
2023/07/26 03:32:20;;;;;;;0.00;0.00;;;9.10;99.90;;;;;;5074373;28;20047;-71
2023/07/26 03:34:47;;;;;;;0.22;0.22;;;9.10;99.90;;;;;;5074320;28;20032;-72
2023/07/26 03:37:12;;;;;;;2.30;0.50;;;9.10;99.90;;;;;;5061762;28;20519;-72
2023/07/26 03:39:38;;;;;;;0.10;0.10;;;9.10;99.90;;;;;;5075251;28;20032;-72
2023/07/26 03:42:03;;;;;;;0.28;0.10;;;9.10;99.90;;;;;;5074570;28;20045;-72
2023/07/26 03:44:29;;;;;;;0.10;0.10;;;9.10;99.90;;;;;;5075121;28;20439;-71
2023/07/26 03:46:55;;;;;;;0.20;0.20;;;9.20;99.90;;;;;;5075211;28;20041;-71
2023/07/26 03:49:20;;;;;;;0.52;0.52;;;9.20;99.90;;;;;;5074278;28;20036;-72
2023/07/26 03:51:46;;;;;;;0.35;0.32;;;9.30;99.90;;;;;;5069253;28;20068;-72
2023/07/26 03:54:11;;;;;;;0.05;0.05;;;9.50;99.90;;;;;;5070268;28;20043;-72
2023/07/26 03:56:37;;;;;;;0.00;0.00;;;9.60;99.90;;;;;;5074950;28;20063;-72
2023/07/26 03:59:03;;;;;;;0.30;0.30;;;9.70;99.90;;;;;;5072640;28;20041;-72
2023/07/26 04:01:28;;;;;;;1.25;0.80;;;9.80;99.90;;;;;;5074883;28;20105;-72
2023/07/26 04:03:54;;;;;;;0.70;0.68;;;9.90;99.90;;;;;;5069442;28;20512;-72
2023/07/26 04:06:19;;;;;;;0.10;0.10;;;9.90;99.90;;;;;;5074694;28;20041;-72
2023/07/26 04:08:46;;;;;;;0.25;0.25;;;9.90;99.90;;;;;;5073946;28;20398;-72
2023/07/26 04:11:11;;;;;;;0.15;0.15;;;10.10;99.90;;;;;;5074504;28;20095;-72
2023/07/26 04:13:37;;;;;;;0.10;0.10;;;10.00;99.90;;;;;;5074744;28;20075;-72
2023/07/26 04:16:16;;;;;;;0.15;0.10;;;10.10;99.90;;;;;;5073875;28;20036;-72
2023/07/26 04:18:42;;;;;;;0.85;0.40;;;10.20;99.90;;;;;;5074483;28;20041;-72
2023/07/26 04:21:13;;;;;;;0.00;0.00;;;10.30;99.90;;;;;;5074543;28;20037;-72
2023/07/26 04:23:38;;;;;;;0.00;0.00;;;10.40;99.90;;;;;;5073789;28;20044;-72
2023/07/26 04:26:04;;;;;;;0.43;0.43;;;10.40;99.90;;;;;;5073405;28;20028;-72
2023/07/26 04:28:29;;;;;;;0.00;0.00;;;10.40;99.90;;;;;;5074373;28;20035;-72
2023/07/26 04:30:55;;;;;;;0.00;0.00;;;10.50;99.90;;;;;;5074082;28;20072;-72
2023/07/26 04:33:21;;;;;;;0.20;0.20;;;10.50;99.90;;;;;;5065966;28;20153;-72
2023/07/26 04:35:46;;;;;;;0.10;0.10;;;10.60;99.90;;;;;;5071914;28;20032;-72
2023/07/26 04:38:12;;;;;;;0.50;0.50;;;10.60;99.90;;;;;;5073941;28;20043;-72
2023/07/26 04:40:38;;;;;;;2.03;0.68;;;10.70;99.90;;;;;;5073841;28;20111;-72
2023/07/26 04:43:04;;;;;;;0.20;0.20;;;10.70;99.90;;;;;;5073706;28;20051;-72
2023/07/26 04:45:30;;;;;;;6.03;0.75;;;10.70;99.90;;;;;;5072473;28;20052;-72
2023/07/26 04:47:56;;;;;;;0.00;0.00;;;10.80;99.90;;;;;;5068750;28;20124;-72
2023/07/26 04:50:21;;;;;;;0.10;0.10;;;10.90;99.90;;;;;;5073168;28;20128;-72
2023/07/26 04:52:47;;;;;;;0.00;0.00;;;10.90;99.90;;;;;;5073942;28;20049;-72
2023/07/26 04:55:13;;;;;;;0.43;0.43;;;11.00;99.90;;;;;;5073697;28;20032;-72
2023/07/26 04:57:39;;;;;;;0.10;0.10;;;11.10;99.90;;;;;;5072291;28;20037;-72
2023/07/26 05:00:06;;;;;;;0.00;0.00;;;11.10;99.90;;;;;;5073534;28;20483;-72
2023/07/26 05:02:32;;;;;;;0.38;0.38;;;11.20;99.90;;;;;;5073503;28;20051;-72
2023/07/26 05:04:57;;;;;;;0.08;0.08;;;11.30;99.90;;;;;;5072971;28;20475;-72
2023/07/26 05:07:23;;;;;;;0.40;0.30;;;11.50;99.90;;;;;;5073770;28;20051;-72
2023/07/26 05:09:48;;;;;;;0.10;0.10;;;11.90;99.90;;;;;;5073211;28;20033;-72
2023/07/26 05:12:14;;;;;;;0.03;0.03;;;12.10;99.90;;;;;;5073355;28;20179;-72
2023/07/26 05:14:43;;;;;;;0.60;0.30;;;12.20;99.90;;;;;;5073303;28;20041;-72
2023/07/26 05:17:08;;;;;;;0.00;0.00;;;12.60;99.90;;;;;;5073313;28;20040;-72
2023/07/26 05:19:34;;;;;;;0.30;0.15;;;12.80;99.90;;;;;;5072736;28;20115;-72
2023/07/26 05:21:59;;;;;;;0.10;0.08;;;13.40;99.90;;;;;;5073272;28;20510;-72
2023/07/26 05:24:25;;;;;;;0.08;0.00;;;13.70;99.90;;;;;;5073127;28;20036;-72
2023/07/26 05:26:51;;;;;;;0.17;0.13;;;13.80;99.90;;;;;;5072415;28;20041;-72
2023/07/26 05:29:16;;;;;;;0.10;0.10;;;13.30;99.90;;;;;;5072954;28;20125;-72
2023/07/26 05:31:42;;;;;;;0.05;0.05;;;13.70;65.90;;;;;;5072579;28;20415;-72
2023/07/26 05:34:07;;;;;;;0.30;0.25;;;13.50;1.00;;;;;;5073142;28;20037;-72
2023/07/26 05:36:33;;;;;;;0.00;0.00;;;13.30;1.00;;;;;;5072083;28;20483;-72
2023/07/26 05:38:59;;;;;;;0.10;0.10;;;13.10;1.00;;;;;;5067650;28;20123;-72
2023/07/26 05:41:26;;;;;;;0.00;0.00;;;13.00;1.00;;;;;;5065674;28;20048;-72
2023/07/26 05:43:52;;;;;;;0.00;0.00;;;13.00;19.30;;;;;;5071186;28;20040;-72
2023/07/26 05:46:18;;;;;;;0.43;0.25;;;13.10;39.40;;;;;;5067026;28;20040;-72
2023/07/26 05:48:44;;;;;;;0.73;0.55;;;13.00;50.90;;;;;;5072966;28;20041;-72
2023/07/26 05:51:09;;;;;;;0.00;0.00;;;13.00;56.50;;;;;;5072890;28;20379;-72
2023/07/26 05:53:36;;;;;;;0.00;0.00;;;13.10;68.90;;;;;;5072010;28;20399;-72
2023/07/26 05:56:02;;;;;;;0.10;0.10;;;13.10;70.60;;;;;;5071861;28;20437;-72
2023/07/26 05:58:28;;;;;;;0.00;0.00;;;13.00;62.60;;;;;;5072579;28;20049;-72
2023/07/26 06:00:53;;;;;;;0.00;0.00;;;13.00;60.80;;;;;;5072217;28;20047;-72
2023/07/26 06:03:19;;;;;;;0.28;0.20;;;13.00;78.20;;;;;;5071437;28;20101;-72
2023/07/26 06:05:45;;;;;;;0.00;0.00;;;12.80;58.50;;;;;;5072528;28;20055;-72
2023/07/26 06:08:10;;;;;;;0.00;0.00;;;12.70;80.90;;;;;;5072560;28;20407;-72
2023/07/26 06:10:36;;;;;;;0.65;0.63;;;12.60;99.90;;;;;;5072374;28;20510;-73
2023/07/26 06:13:03;;;;;;;0.00;0.00;;;12.50;99.90;;;;;;5069965;28;20479;-74
2023/07/26 06:15:28;;;;;;;0.00;0.00;;;12.50;99.90;;;;;;5066325;28;20087;-74
2023/07/26 06:17:54;;;;;;;0.10;0.03;;;12.50;99.90;;;;;;5067797;28;20135;-73
2023/07/26 06:20:19;;;;;;;0.80;0.25;;;12.60;99.90;;;;;;5069437;28;20604;-73
2023/07/26 06:22:47;;;;;;;0.00;0.00;;;12.80;99.90;;;;;;5069367;28;20040;-73
2023/07/26 06:25:12;;;;;;;0.15;0.10;;;13.00;99.90;;;;;;5067682;28;20087;-73
2023/07/26 06:27:38;;;;;;;0.00;0.00;;;13.20;99.90;;;;;;5068373;28;20075;-73
2023/07/26 06:30:05;;;;;;;0.13;0.10;;;13.40;99.90;;;;;;5068931;28;20570;-73
2023/07/26 06:32:31;;;;;;;0.00;0.00;;;13.60;99.90;;;;;;5069255;28;20286;-73
2023/07/26 06:34:57;;;;;;;0.03;0.03;;;13.80;99.90;;;;;;5069224;28;20049;-73
2023/07/26 06:37:22;;;;;;;0.15;0.10;;;13.90;99.90;;;;;;5060841;28;20045;-73
2023/07/26 06:39:48;;;;;;;0.08;0.08;;;14.10;99.90;;;;;;5069142;28;20049;-73
2023/07/26 06:42:13;;;;;;;0.00;0.00;;;14.30;99.90;;;;;;5065927;28;20124;-73
2023/07/26 06:44:42;;;;;;;0.00;0.00;;;14.50;99.90;;;;;;5060691;28;20449;-73
2023/07/26 06:47:08;;;;;;;0.30;0.20;;;14.90;99.90;;;;;;5067899;28;20098;-72
2023/07/26 06:49:34;;;;;;;0.00;0.00;;;15.60;99.90;;;;;;5069106;28;20503;-72
2023/07/26 06:51:59;;;;;;;0.43;0.40;;;16.00;90.50;;;;;;5068912;28;20094;-73
2023/07/26 06:54:25;;;;;;;3.88;0.20;;;15.80;1.00;;;;;;5068975;28;20044;-73
2023/07/26 06:56:51;;;;;;;0.00;0.00;;;15.50;99.90;;;;;;5057629;28;20049;-73
2023/07/26 06:59:17;;;;;;;0.60;0.45;;;15.60;99.90;;;;;;5068381;28;20071;-73
2023/07/26 07:01:42;;;;;;;0.35;0.25;;;15.30;99.90;;;;;;5068114;28;20419;-72
2023/07/26 07:04:08;;;;;;;2.78;0.32;;;15.40;99.90;;;;;;5061724;28;20093;-72
2023/07/26 07:06:34;;;;;;;0.13;0.13;;;15.50;99.90;;;;;;5061930;28;20079;-72
2023/07/26 07:08:59;;;;;;;0.15;0.15;;;15.80;99.90;;;;;;5070752;28;20116;-72
2023/07/26 07:11:25;;;;;;;0.00;0.00;;;15.60;99.90;;;;;;5066000;28;20106;-72
2023/07/26 07:13:51;;;;;;;0.00;0.00;;;15.20;99.90;;;;;;5072664;28;20469;-72
2023/07/26 07:16:16;;;;;;;0.00;0.00;;;14.70;99.90;;;;;;5071884;28;20051;-72
2023/07/26 07:18:42;;;;;;;0.15;0.10;;;14.10;99.90;;;;;;5072617;28;20398;-72
2023/07/26 07:21:07;;;;;;;0.43;0.30;;;13.70;1.00;;;;;;5072447;28;20086;-72
2023/07/26 07:23:35;;;;;;;0.00;0.00;;;13.50;99.90;;;;;;5072155;28;20398;-73
2023/07/26 07:26:00;;;;;;;0.00;0.00;;;13.30;99.90;;;;;;5069540;28;20398;-72
2023/07/26 07:28:26;;;;;;;0.00;0.00;;;13.10;99.90;;;;;;5071934;28;20041;-72
2023/07/26 07:30:52;;;;;;;0.32;0.32;;;13.00;99.90;;;;;;5070976;28;20057;-72
2023/07/26 07:33:17;;;;;;;0.10;0.10;;;12.90;99.90;;;;;;5070829;28;20072;-72
2023/07/26 07:35:43;;;;;;;0.00;0.00;;;12.90;99.90;;;;;;5072250;28;20445;-72
2023/07/26 07:38:08;;;;;;;0.00;0.00;;;12.90;99.90;;;;;;5072572;28;20045;-72
2023/07/26 07:40:34;;;;;;;2.63;0.57;;;12.90;99.90;;;;;;5071215;28;20040;-72
2023/07/26 07:43:00;;;;;;;0.00;0.00;;;13.00;99.90;;;;;;5071509;28;20052;-72
2023/07/26 07:45:25;;;;;;;0.43;0.38;;;13.20;99.90;;;;;;5072176;28;20087;-72
2023/07/26 07:47:51;;;;;;;0.00;0.00;;;13.30;99.90;;;;;;5070979;28;20143;-72
2023/07/26 07:50:16;;;;;;;0.20;0.20;;;13.50;99.90;;;;;;5071799;28;20045;-72
2023/07/26 07:52:42;;;;;;;0.35;0.20;;;13.60;99.90;;;;;;5071710;28;20120;-72
2023/07/26 07:55:08;;;;;;;0.00;0.00;;;13.70;99.90;;;;;;5070867;28;20045;-72
2023/07/26 07:57:33;;;;;;;0.00;0.00;;;13.70;99.90;;;;;;5071041;28;20051;-72
2023/07/26 07:59:59;;;;;;;0.00;0.00;;;13.90;99.90;;;;;;5071916;28;20076;-72
2023/07/26 08:02:24;;;;;;;0.30;0.28;;;13.80;99.90;;;;;;5071807;28;20082;-72
2023/07/26 08:04:50;;;;;;;0.20;0.10;;;14.00;99.90;;;;;;5071505;28;20051;-72
2023/07/26 08:07:16;;;;;;;0.00;0.00;;;14.60;99.90;;;;;;5069781;28;20037;-72
2023/07/26 08:09:41;;;;;;;0.00;0.00;;;15.80;99.90;;;;;;5069729;28;20039;-72
2023/07/26 08:12:07;;;;;;;0.00;0.00;;;16.60;99.90;;;;;;5069958;28;20057;-72
2023/07/26 08:14:33;;;;;;;0.13;0.13;;;17.50;99.90;;;;;;5071757;28;20462;-72
2023/07/26 08:16:59;;;;;;;0.00;0.00;;;18.50;99.90;;;;;;5071132;28;20135;-72
2023/07/26 08:19:25;;;;;;;0.00;0.00;;;18.50;99.90;;;;;;5066955;28;20119;-72
2023/07/26 08:21:51;;;;;;;0.30;0.10;;;18.60;99.90;;;;;;5070723;28;20076;-72
2023/07/26 08:24:17;;;;;;;0.20;0.17;;;18.00;1.00;;;;;;5071287;28;20044;-72
2023/07/26 08:26:43;;;;;;;0.00;0.00;;;17.20;99.90;;;;;;5071445;28;20441;-72
2023/07/26 08:29:10;;;;;;;0.10;0.10;;;16.80;99.90;;;;;;5071333;28;20040;-72
2023/07/26 08:31:36;;;;;;;0.00;0.00;;;16.30;99.90;;;;;;5062662;28;20059;-72
2023/07/26 08:34:01;;;;;;;0.10;0.00;;;16.10;18.20;;;;;;5063820;28;20131;-72
2023/07/26 08:36:27;;;;;;;0.20;0.10;;;16.60;40.90;;;;;;5070441;28;20128;-72
2023/07/26 08:38:53;;;;;;;0.13;0.10;;;16.70;99.90;;;;;;5070854;28;20062;-72
2023/07/26 08:41:18;;;;;;;0.10;0.10;;;16.40;99.90;;;;;;5070619;28;20452;-72
2023/07/26 08:43:45;;;;;;;0.00;0.00;;;16.10;99.90;;;;;;5069223;28;20040;-72
2023/07/26 08:46:13;;;;;;;0.00;0.00;;;16.30;8.80;;;;;;5071002;28;20048;-72
2023/07/26 08:48:39;;;;;;;0.82;0.60;;;16.70;99.90;;;;;;5062689;28;20093;-72
2023/07/26 08:51:06;;;;;;;0.00;0.00;;;17.40;99.90;;;;;;5068850;28;20044;-72
2023/07/26 08:53:34;;;;;;;0.45;0.25;;;18.10;99.90;;;;;;5070489;28;20045;-72
2023/07/26 08:55:59;;;;;;;0.00;0.00;;;18.00;73.20;;;;;;5070660;28;20052;-72
2023/07/26 08:58:25;;;;;;;0.00;0.00;;;18.10;99.90;;;;;;5070187;28;20044;-72
2023/07/26 09:00:51;;;;;;;0.38;0.13;;;17.90;99.90;;;;;;5070699;28;20032;-71
2023/07/26 09:03:17;;;;;;;0.00;0.00;;;17.70;93.70;;;;;;5070531;28;20089;-72
2023/07/26 09:05:45;;;;;;;0.00;0.00;;;18.10;99.90;;;;;;5070236;28;20077;-72
2023/07/26 09:08:11;;;;;;;0.30;0.30;;;18.80;99.90;;;;;;5069726;28;20040;-72
2023/07/26 09:10:40;;;;;;;0.00;0.00;;;19.40;99.90;;;;;;5069183;28;20047;-72
2023/07/26 09:13:09;;;;;;;1.00;0.77;;;19.80;99.90;;;;;;5054412;28;20045;-72
2023/07/26 09:15:37;;;;;;;1.65;0.43;;;20.70;99.90;;;;;;5070474;28;20037;-72
2023/07/26 09:18:06;;;;;;;0.00;0.00;;;21.40;99.90;;;;;;5070204;28;20128;-72
2023/07/26 09:20:32;;;;;;;0.00;0.00;;;21.10;74.90;;;;;;5064524;28;20431;-72
2023/07/26 09:23:05;;;;;;;0.08;0.08;;;21.30;7.90;;;;;;5070002;28;20040;-72
2023/07/26 09:25:43;;;;;;;3.80;0.20;;;21.50;1.00;;;;;;5065211;28;20063;-72
2023/07/26 09:28:15;;;;;;;0.25;0.22;;;22.00;1.00;;;;;;5068075;28;20435;-72
2023/07/26 09:30:45;;;;;;;0.55;0.45;;;22.40;1.00;;;;;;5069304;28;20513;-71
2023/07/26 09:33:11;;;;;;;0.20;0.20;;;22.60;1.00;;;;;;5063529;28;20040;-72
2023/07/26 09:35:48;;;;;;;0.20;0.13;;;22.70;1.00;;;;;;5056145;28;20029;-72
2023/07/26 09:38:17;;;;;;;0.10;0.10;;;22.60;99.90;;;;;;5070017;28;20079;-71
2023/07/26 09:40:44;;;;;;;0.00;0.00;;;22.70;99.90;;;;;;5069789;28;20037;-72
2023/07/26 09:43:10;;;;;;;0.32;0.28;;;22.90;99.90;;;;;;5069884;28;20048;-72
2023/07/26 09:45:36;;;;;;;0.00;0.00;;;22.70;99.90;;;;;;5061108;28;20051;-72
2023/07/26 09:48:11;;;;;;;0.22;0.20;;;22.90;99.90;;;;;;5068821;28;20056;-72
2023/07/26 09:50:40;;;;;;;0.00;0.00;;;23.30;99.90;;;;;;5069539;28;20503;-72
2023/07/26 09:53:06;;;;;;;0.38;0.30;;;23.40;99.90;;;;;;5069687;28;20453;-72
2023/07/26 09:55:33;;;;;;;0.47;0.45;;;22.80;99.90;;;;;;5069551;28;20045;-72
2023/07/26 09:57:59;;;;;;;0.00;0.00;;;22.70;99.90;;;;;;5069849;28;20097;-72
2023/07/26 10:00:26;;;;;;;2.30;0.50;;;22.60;99.90;;;;;;5069384;28;20048;-72
2023/07/26 10:03:04;;;;;;;0.05;0.05;;;22.50;99.90;;;;;;5069010;28;20083;-72
2023/07/26 10:05:42;;;;;;;0.00;0.00;;;22.20;99.90;;;;;;5069285;28;20498;-72
2023/07/26 10:08:10;;;;;;;0.52;0.38;;;21.00;99.90;;;;;;5062584;28;20044;-72
2023/07/26 10:10:35;;;;;;;0.43;0.22;;;19.40;99.90;;;;;;5069237;28;20052;-72
2023/07/26 10:13:04;;;;;;;0.20;0.00;;;18.20;99.90;;;;;;5069436;28;20371;-72
2023/07/26 10:15:31;;;;;;;0.15;0.15;;;17.30;99.90;;;;;;5069196;28;20811;-72
2023/07/26 10:17:57;;;;;;;0.00;0.00;;;16.80;63.50;;;;;;5063230;28;20385;-72
2023/07/26 10:20:24;;;;;;;0.10;0.10;;;16.50;1.00;;;;;;5069396;28;20076;-72
2023/07/26 10:22:51;;;;;;;0.15;0.03;;;16.40;99.90;;;;;;5069303;28;20048;-72
2023/07/26 10:25:17;;;;;;;0.00;0.00;;;16.30;99.90;;;;;;5060826;28;20124;-72
2023/07/26 10:27:44;;;;;;;0.30;0.25;;;16.60;99.90;;;;;;5069526;28;20157;-72
2023/07/26 10:30:10;;;;;;;0.47;0.40;;;17.00;99.90;;;;;;5069361;28;20122;-72
2023/07/26 10:32:54;;;;;;;0.43;0.10;;;17.20;63.40;;;;;;5068052;28;20563;-72
2023/07/26 10:35:32;;;;;;;0.10;0.10;;;17.50;99.90;;;;;;5069063;28;20056;-72
2023/07/26 10:37:59;;;;;;;1.65;0.43;;;17.80;99.90;;;;;;5069206;28;20041;-72
2023/07/26 10:40:35;;;;;;;0.38;0.20;;;18.40;99.90;;;;;;5068501;28;20440;-72
2023/07/26 10:43:35;;;;;;;0.30;0.30;;;18.80;99.90;;;;;;5065398;28;20045;-72
2023/07/26 10:46:09;;;;;;;0.00;0.00;;;19.40;99.90;;;;;;5068032;28;20048;-72
2023/07/26 10:48:39;;;;;;;0.17;0.17;;;19.80;1.00;;;;;;5073265;28;20059;-72
2023/07/26 10:51:23;;;;;;;0.00;0.00;;;19.80;1.00;;;;;;5073027;28;20495;-72
2023/07/26 10:53:49;;;;;;;0.93;0.10;;;20.00;1.00;;;;;;5065475;28;20049;-72
2023/07/26 10:56:31;;;;;;;0.00;0.00;;;20.20;1.00;;;;;;5070694;28;20047;-72
2023/07/26 10:59:24;;;;;;;0.10;0.10;;;20.70;99.90;;;;;;5066286;28;20127;-72
2023/07/26 11:01:49;;;;;;;0.08;0.08;;;21.10;99.90;;;;;;5073165;28;20048;-72
2023/07/26 11:04:20;;;;;;;0.00;0.00;;;21.20;99.90;;;;;;5065204;28;20068;-72
2023/07/26 11:06:51;;;;;;;0.00;0.00;;;21.10;99.90;;;;;;5072570;28;20514;-72
2023/07/26 11:09:24;;;;;;;0.00;0.00;;;21.30;99.90;;;;;;5071723;28;20085;-72
2023/07/26 11:11:55;;;;;;;0.47;0.38;;;21.60;99.90;;;;;;5072818;28;20088;-72
2023/07/26 11:14:26;;;;;;;0.17;0.10;;;21.80;99.90;;;;;;5072693;28;20076;-72
2023/07/26 11:16:53;;;;;;;0.75;0.38;;;22.10;99.90;;;;;;5072538;28;20048;-73
2023/07/26 11:19:19;;;;;;;0.00;0.00;;;22.30;99.90;;;;;;5072429;28;20040;-72
2023/07/26 11:21:45;;;;;;;0.10;0.05;;;22.40;99.90;;;;;;5072732;28;20044;-72
2023/07/26 11:24:10;;;;;;;0.00;0.00;;;22.30;99.90;;;;;;5071805;28;20044;-72
2023/07/26 11:26:44;;;;;;;0.00;0.00;;;22.20;99.90;;;;;;5074669;28;20047;-72
2023/07/26 11:29:10;;;;;;;2.45;0.17;;;22.30;99.90;;;;;;5075421;28;20076;-72
2023/07/26 11:31:36;;;;;;;0.00;0.00;;;22.60;99.90;;;;;;5075399;28;20032;-72
2023/07/26 11:34:19;;;;;;;0.00;0.00;;;23.10;99.90;;;;;;5074820;28;20048;-72
2023/07/26 11:36:45;;;;;;;0.00;0.00;;;22.90;99.90;;;;;;5073971;28;20103;-72
2023/07/26 11:39:22;;;;;;;0.00;0.00;;;21.70;27.70;;;;;;5073748;28;20136;-72
2023/07/26 11:41:49;;;;;;;0.15;0.13;;;20.80;1.00;;;;;;5073139;28;20059;-72
2023/07/26 11:44:15;;;;;;;0.22;0.20;;;20.10;1.00;;;;;;5075079;28;20102;-72
2023/07/26 11:46:43;;;;;;;0.40;0.20;;;19.50;1.00;;;;;;5073899;28;20048;-72
2023/07/26 11:49:11;;;;;;;0.28;0.10;;;18.80;1.00;;;;;;5074944;28;20068;-72
2023/07/26 11:51:37;;;;;;;0.00;0.00;;;17.60;88.00;;;;;;5073998;28;20052;-73
2023/07/26 11:54:06;;;;;;;0.35;0.28;;;16.50;22.30;;;;;;5075087;28;20049;-72
2023/07/26 11:56:33;;;;;;;0.00;0.00;;;15.90;99.90;;;;;;5074858;28;20498;-72
2023/07/26 11:58:59;;;;;;;0.00;0.00;;;15.60;99.90;;;;;;5074925;28;20044;-73
2023/07/26 12:01:26;;;;;;;0.00;0.00;;;15.10;99.90;;;;;;5074275;28;20063;-73
2023/07/26 12:03:51;;;;;;;0.25;0.25;;;14.70;1.00;;;;;;5074813;28;20044;-73
2023/07/26 12:06:19;;;;;;;0.85;0.47;;;14.40;99.90;;;;;;5074883;28;20037;-73
2023/07/26 12:08:47;;;;;;;0.00;0.00;;;13.90;99.90;;;;;;5074795;28;20041;-73
2023/07/26 12:11:17;;;;;;;1.65;0.08;;;13.60;99.90;;;;;;5074282;28;20449;-73
2023/07/26 12:13:42;;;;;;;0.00;0.00;;;13.30;99.90;;;;;;5074307;28;20180;-73
2023/07/26 12:16:09;;;;;;;0.05;0.05;;;13.20;99.90;;;;;;5073301;28;20115;-73
2023/07/26 12:18:35;;;;;;;0.00;0.00;;;13.40;99.90;;;;;;5074720;28;20048;-72
2023/07/26 12:21:03;;;;;;;0.00;0.00;;;13.60;99.90;;;;;;5074500;28;20063;-73
2023/07/26 12:23:51;;;;;;;0.63;0.10;;;14.10;99.90;;;;;;5074533;28;20064;-72
2023/07/26 12:26:21;;;;;;;0.00;0.00;;;14.70;99.90;;;;;;5066340;28;20070;-72
2023/07/26 12:28:47;;;;;;;0.00;0.00;;;16.60;99.90;;;;;;5074585;28;20036;-72
2023/07/26 12:31:43;;;;;;;0.25;0.20;;;17.30;99.90;;;;;;5073592;28;20051;-72
2023/07/26 12:34:10;;;;;;;0.00;0.00;;;18.50;99.90;;;;;;5069691;28;20052;-72
2023/07/26 12:36:41;;;;;;;1.75;0.88;;;18.20;99.90;;;;;;5074073;28;20133;-72
2023/07/26 12:39:12;;;;;;;1.45;0.55;;;17.60;99.90;;;;;;5074076;28;20513;-72
2023/07/26 12:41:39;;;;;;;4.63;0.75;;;17.10;99.90;;;;;;5074137;28;20067;-72
2023/07/26 12:44:06;;;;;;;0.00;0.00;;;16.80;99.90;;;;;;5073284;28;20041;-72
2023/07/26 12:46:32;;;;;;;0.00;0.00;;;16.70;99.90;;;;;;5073887;28;20036;-72
2023/07/26 12:48:58;;;;;;;0.00;0.00;;;16.60;99.90;;;;;;5073816;28;20040;-72
2023/07/26 12:51:27;;;;;;;0.00;0.00;;;16.70;99.90;;;;;;5073996;28;20048;-72